createdAt,value
2022-12-15T00:02:25.351Z,0.33
2022-12-15T00:05:10.298Z,0.35
2022-12-15T00:07:55.532Z,0.43
2022-12-15T00:10:40.709Z,0.45
2022-12-15T00:13:31.352Z,0.42
2022-12-15T00:16:17.201Z,0.44
2022-12-15T00:19:02.798Z,0.34
2022-12-15T00:21:48.503Z,0.10
2022-12-15T00:24:33.675Z,0.25
2022-12-15T00:27:19.348Z,0.27
2022-12-15T00:30:04.889Z,0.22
2022-12-15T00:32:50.119Z,0.19
2022-12-15T00:35:35.421Z,0.10
2022-12-15T00:38:29.006Z,0.22
2022-12-15T00:40:59.330Z,0.15
2022-12-15T00:43:28.549Z,0.26
2022-12-15T00:46:14.089Z,0.20
2022-12-15T00:48:41.281Z,0.20
2022-12-15T00:51:08.435Z,0.14
2022-12-15T00:53:53.915Z,0.09
2022-12-15T00:56:39.270Z,0.10
2022-12-15T00:59:24.639Z,0.08
2022-12-15T01:02:09.977Z,0.13
2022-12-15T01:04:55.239Z,0.07
2022-12-15T01:07:40.411Z,0.27
2022-12-15T01:10:26.243Z,0.25
2022-12-15T01:13:11.871Z,0.12
2022-12-15T01:15:57.626Z,0.02
2022-12-15T01:18:42.931Z,-0.08
2022-12-15T01:21:11.215Z,-0.12
2022-12-15T01:23:38.959Z,-0.15
2022-12-15T01:26:06.790Z,-0.04
2022-12-15T01:28:33.353Z,0.02
2022-12-15T01:31:00.191Z,0.07
2022-12-15T01:33:26.847Z,0.13
2022-12-15T01:35:57.386Z,0.14
2022-12-15T01:38:24.495Z,0.11
2022-12-15T01:40:58.769Z,-0.04
2022-12-15T01:43:29.518Z,-0.08
2022-12-15T01:46:06.857Z,-0.05
2022-12-15T01:48:38.123Z,-0.08
2022-12-15T01:51:19.422Z,-0.07
2022-12-15T01:54:26.525Z,-0.05
2022-12-15T01:56:58.527Z,0.05
2022-12-15T01:59:41.023Z,0.06
2022-12-15T02:02:08.339Z,-0.05
2022-12-15T02:04:35.346Z,-0.15
2022-12-15T02:07:04.125Z,-0.18
2022-12-15T02:09:31.185Z,-0.30
2022-12-15T02:12:07.117Z,-0.29
2022-12-15T02:14:58.292Z,-0.26
2022-12-15T02:17:27.818Z,-0.28
2022-12-15T02:20:09.344Z,-0.29
2022-12-15T02:22:59.168Z,-0.17
2022-12-15T02:25:34.875Z,-0.22
2022-12-15T02:28:08.408Z,-0.33
2022-12-15T02:31:14.450Z,-0.27
2022-12-15T02:33:51.952Z,-0.32
2022-12-15T02:36:28.444Z,-0.24
2022-12-15T02:38:55.426Z,-0.16
2022-12-15T02:41:46.185Z,-0.18
2022-12-15T02:44:31.731Z,-0.23
2022-12-15T02:47:19.772Z,-0.25
2022-12-15T02:50:11.172Z,-0.28
2022-12-15T02:52:40.861Z,-0.30
2022-12-15T02:55:17.114Z,-0.33
2022-12-15T02:58:06.845Z,-0.32
2022-12-15T03:00:40.878Z,-0.34
2022-12-15T03:03:08.385Z,-0.35
2022-12-15T03:05:35.614Z,-0.30
2022-12-15T03:08:02.361Z,-0.33
2022-12-15T03:10:29.128Z,-0.31
2022-12-15T03:12:55.910Z,-0.35
2022-12-15T03:15:22.603Z,-0.38
2022-12-15T03:17:49.370Z,-0.33
2022-12-15T03:20:16.051Z,-0.32
2022-12-15T03:22:42.782Z,-0.25
2022-12-15T03:25:09.526Z,-0.24
2022-12-15T03:27:36.362Z,-0.23
2022-12-15T03:30:03.737Z,-0.27
2022-12-15T03:32:30.515Z,-0.42
2022-12-15T03:34:57.487Z,-0.50
2022-12-15T03:37:24.147Z,-0.45
2022-12-15T03:39:50.855Z,-0.37
2022-12-15T03:42:37.610Z,-0.37
2022-12-15T03:45:04.866Z,-0.45
2022-12-15T03:47:32.039Z,-0.49
2022-12-15T03:49:58.664Z,-0.58
2022-12-15T03:52:25.594Z,-0.47
2022-12-15T03:54:52.474Z,-0.47
2022-12-15T03:57:19.099Z,-0.45
2022-12-15T03:59:45.771Z,-0.54
2022-12-15T04:02:12.661Z,-0.56
2022-12-15T04:04:39.703Z,-0.52
2022-12-15T04:07:06.398Z,-0.53
2022-12-15T04:09:33.063Z,-0.44
2022-12-15T04:11:59.655Z,-0.57
2022-12-15T04:14:26.339Z,-0.58
2022-12-15T04:16:53.067Z,-0.55
2022-12-15T04:19:38.446Z,-0.49
2022-12-15T04:22:05.105Z,-0.41
2022-12-15T04:24:50.385Z,-0.40
2022-12-15T04:27:35.538Z,-0.44
2022-12-15T04:30:20.839Z,-0.59
2022-12-15T04:33:06.097Z,-0.67
2022-12-15T04:35:52.890Z,-0.67
2022-12-15T04:38:49.886Z,-0.59
2022-12-15T04:41:37.857Z,-0.53
2022-12-15T04:44:23.790Z,-0.52
2022-12-15T04:47:09.054Z,-0.63
2022-12-15T04:49:54.230Z,-0.64
2022-12-15T04:52:39.416Z,-0.56
2022-12-15T04:55:25.451Z,-0.49
2022-12-15T04:58:10.688Z,-0.63
2022-12-15T05:00:55.976Z,-0.64
2022-12-15T05:03:41.046Z,-0.56
2022-12-15T05:06:26.702Z,-0.53
2022-12-15T05:09:11.949Z,-0.62
2022-12-15T05:11:57.323Z,-0.68
2022-12-15T05:14:42.570Z,-0.64
2022-12-15T05:17:28.056Z,-0.53
2022-12-15T05:20:13.423Z,-0.59
2022-12-15T05:22:59.562Z,-0.57
2022-12-15T05:25:44.601Z,-0.53
2022-12-15T05:28:30.053Z,-0.54
2022-12-15T05:31:15.501Z,-0.52
2022-12-15T05:33:42.274Z,-0.58
2022-12-15T05:36:09.193Z,-0.63
2022-12-15T05:38:35.964Z,-0.60
2022-12-15T05:41:02.555Z,-0.56
2022-12-15T05:43:29.831Z,-0.47
2022-12-15T05:45:56.690Z,-0.56
2022-12-15T05:48:23.398Z,-0.52
2022-12-15T05:50:50.602Z,-0.46
2022-12-15T05:53:17.384Z,-0.45
2022-12-15T05:55:44.158Z,-0.58
2022-12-15T05:58:10.751Z,-0.56
2022-12-15T06:00:37.487Z,-0.56
2022-12-15T06:03:04.528Z,-0.58
2022-12-15T06:05:31.147Z,-0.60
2022-12-15T06:07:59.951Z,-0.56
2022-12-15T06:10:26.696Z,-0.61
2022-12-15T06:12:54.205Z,-0.53
2022-12-15T06:15:20.807Z,-0.51
2022-12-15T06:17:49.776Z,-0.73
2022-12-15T06:20:16.583Z,-0.47
2022-12-15T06:22:49.448Z,-0.56
2022-12-15T06:25:17.714Z,-0.47
2022-12-15T06:27:44.354Z,-0.46
2022-12-15T06:30:11.248Z,-0.56
2022-12-15T06:32:37.796Z,-0.55
2022-12-15T06:35:04.805Z,-0.46
2022-12-15T06:37:31.335Z,-0.41
2022-12-15T06:39:57.924Z,-0.45
2022-12-15T06:42:24.576Z,-0.51
2022-12-15T06:44:51.285Z,-0.57
2022-12-15T06:47:17.878Z,-0.64
2022-12-15T06:49:44.618Z,-0.52
2022-12-15T06:52:11.215Z,-0.43
2022-12-15T06:54:38.660Z,-0.39
2022-12-15T06:57:05.745Z,-0.45
2022-12-15T06:59:32.361Z,-0.45
2022-12-15T07:02:00.541Z,-0.49
2022-12-15T07:04:27.512Z,-0.50
2022-12-15T07:06:54.306Z,-0.46
2022-12-15T07:09:21.017Z,-0.44
2022-12-15T07:11:50.346Z,-0.35
2022-12-15T07:14:17.095Z,-0.31
2022-12-15T07:16:43.974Z,-0.30
2022-12-15T07:19:12.560Z,-0.46
2022-12-15T07:21:39.198Z,-0.51
2022-12-15T07:24:06.492Z,-0.40
2022-12-15T07:26:34.112Z,-0.46
2022-12-15T07:29:00.779Z,-0.49
2022-12-15T07:31:27.471Z,-0.46
2022-12-15T07:33:54.878Z,-0.40
2022-12-15T07:36:22.094Z,-0.37
2022-12-15T07:38:49.926Z,-0.24
2022-12-15T07:41:18.559Z,-0.26
2022-12-15T07:43:46.593Z,-0.35
2022-12-15T07:46:14.166Z,-0.33
2022-12-15T07:48:41.104Z,-0.23
2022-12-15T07:51:17.113Z,-0.19
2022-12-15T07:53:46.833Z,-0.16
2022-12-15T07:56:13.985Z,-0.13
2022-12-15T07:58:40.998Z,-0.13
2022-12-15T08:01:10.520Z,-0.16
2022-12-15T08:03:38.823Z,-0.18
2022-12-15T08:06:11.707Z,-0.18
2022-12-15T08:08:39.576Z,-0.07
2022-12-15T08:11:07.547Z,-0.24
2022-12-15T08:16:22.216Z,-0.06
2022-12-15T08:18:49.138Z,0.04
2022-12-15T08:21:16.208Z,0.11
2022-12-15T08:23:42.822Z,0.15
2022-12-15T08:26:12.273Z,0.13
2022-12-15T08:28:40.169Z,0.16
2022-12-15T08:31:18.821Z,0.20
2022-12-15T08:33:46.503Z,0.25
2022-12-15T08:36:14.901Z,0.19
2022-12-15T08:38:43.452Z,0.21
2022-12-15T08:41:16.891Z,0.29
2022-12-15T08:43:48.695Z,0.36
2022-12-15T08:46:17.999Z,0.33
2022-12-15T08:48:45.147Z,0.31
2022-12-15T08:51:12.072Z,0.28
2022-12-15T08:53:38.825Z,0.30
2022-12-15T08:56:17.290Z,0.40
2022-12-15T08:58:45.561Z,0.43
2022-12-15T09:01:22.896Z,0.38
2022-12-15T09:03:52.245Z,0.46
2022-12-15T09:06:22.419Z,0.49
2022-12-15T09:08:50.496Z,0.50
2022-12-15T09:11:17.624Z,0.46
2022-12-15T09:13:44.614Z,0.48
2022-12-15T09:16:14.103Z,0.54
2022-12-15T09:18:52.722Z,0.56
2022-12-15T09:21:25.091Z,0.59
2022-12-15T09:23:54.760Z,0.55
2022-12-15T09:26:23.131Z,0.56
2022-12-15T09:28:51.880Z,0.58
2022-12-15T09:31:24.589Z,0.63
2022-12-15T09:33:53.401Z,0.67
2022-12-15T09:36:21.235Z,0.76
2022-12-15T09:38:48.040Z,0.79
2022-12-15T09:41:17.270Z,0.70
2022-12-15T09:44:11.678Z,0.76
2022-12-15T09:47:05.855Z,0.83
2022-12-15T09:49:35.319Z,0.73
2022-12-15T09:52:29.319Z,0.78
2022-12-15T09:54:58.221Z,0.82
2022-12-15T09:57:45.977Z,0.90
2022-12-15T10:00:41.818Z,0.87
2022-12-15T10:03:32.945Z,0.83
2022-12-15T10:06:21.476Z,0.85
2022-12-15T10:08:58.423Z,0.83
2022-12-15T10:11:45.259Z,0.88
2022-12-15T10:14:36.022Z,0.87
2022-12-15T10:17:06.976Z,0.82
2022-12-15T10:19:41.862Z,0.88
2022-12-15T10:22:27.143Z,0.97
2022-12-15T10:25:11.139Z,1.02
2022-12-15T10:27:53.430Z,1.07
2022-12-15T10:30:21.791Z,1.06
2022-12-15T10:33:25.323Z,1.13
2022-12-15T10:35:55.500Z,1.08
2022-12-15T10:38:38.225Z,1.10
2022-12-15T10:41:08.270Z,1.14
2022-12-15T10:43:38.216Z,1.13
2022-12-15T10:46:21.985Z,1.12
2022-12-15T10:48:56.441Z,1.11
2022-12-15T10:51:37.060Z,1.12
2022-12-15T10:54:13.276Z,1.13
2022-12-15T10:56:52.983Z,1.18
2022-12-15T10:59:25.876Z,1.26
2022-12-15T11:01:53.360Z,1.24
2022-12-15T11:04:30.667Z,1.27
2022-12-15T11:06:59.708Z,1.28
2022-12-15T11:09:38.534Z,1.30
2022-12-15T11:12:38.472Z,1.30
2022-12-15T11:15:23.510Z,1.35
2022-12-15T11:18:11.210Z,1.32
2022-12-15T11:20:42.338Z,1.47
2022-12-15T11:23:21.711Z,1.57
2022-12-15T11:26:13.700Z,1.47
2022-12-15T11:28:50.894Z,1.43
2022-12-15T11:31:29.541Z,1.41
2022-12-15T11:33:56.258Z,1.30
2022-12-15T11:36:22.998Z,1.34
2022-12-15T11:38:59.384Z,1.39
2022-12-15T11:42:17.521Z,1.31
2022-12-15T11:45:04.549Z,1.33
2022-12-15T11:47:34.053Z,1.30
2022-12-15T11:50:17.311Z,1.26
2022-12-15T11:53:21.354Z,1.28
2022-12-15T11:56:02.157Z,1.29
2022-12-15T11:58:56.212Z,1.32
2022-12-15T12:01:28.948Z,1.28
2022-12-15T12:04:20.573Z,1.25
2022-12-15T12:07:23.484Z,1.31
2022-12-15T12:10:29.110Z,1.28
2022-12-15T12:12:58.600Z,1.29
2022-12-15T12:15:35.396Z,1.22
2022-12-15T12:18:11.879Z,1.20
2022-12-15T12:20:55.701Z,1.20
2022-12-15T12:23:30.181Z,1.23
2022-12-15T12:26:19.345Z,1.33
2022-12-15T12:28:48.883Z,1.38
2022-12-15T12:31:41.595Z,1.49
2022-12-15T12:34:20.268Z,1.48
2022-12-15T12:36:49.152Z,1.51
2022-12-15T12:39:22.670Z,1.59
2022-12-15T12:42:15.094Z,1.62
2022-12-15T12:44:41.834Z,1.63
2022-12-15T12:47:26.249Z,1.64
2022-12-15T12:50:39.486Z,1.71
2022-12-15T12:53:06.247Z,1.70
2022-12-15T12:55:32.801Z,1.63
2022-12-15T12:57:59.501Z,1.64
2022-12-15T13:00:28.592Z,1.63
2022-12-15T13:03:19.890Z,1.63
2022-12-15T13:08:51.741Z,1.60
2022-12-15T13:11:51.069Z,1.58
2022-12-15T13:14:29.957Z,1.66
2022-12-15T13:17:25.545Z,1.62
2022-12-15T13:19:58.568Z,1.59
2022-12-15T13:22:43.775Z,1.72
2022-12-15T13:25:37.525Z,1.73
2022-12-15T13:28:18.324Z,1.76
2022-12-15T13:31:16.644Z,1.79
2022-12-15T13:33:49.247Z,1.80
2022-12-15T13:36:37.789Z,1.79
2022-12-15T13:39:27.388Z,1.79
2022-12-15T13:42:31.516Z,1.79
2022-12-15T13:44:48.807Z,1.65
2022-12-15T13:47:22.165Z,1.63
2022-12-15T13:50:02.309Z,1.52
2022-12-15T13:53:08.663Z,1.53
2022-12-15T13:55:31.463Z,1.50
2022-12-15T13:58:05.329Z,1.48
2022-12-15T14:00:32.797Z,1.51
2022-12-15T14:03:07.246Z,1.48
2022-12-15T14:05:33.998Z,1.58
2022-12-15T14:08:02.936Z,1.60
2022-12-15T14:10:44.493Z,1.47
2022-12-15T14:13:34.086Z,1.47
2022-12-15T14:16:22.483Z,1.42
2022-12-15T14:19:15.617Z,1.40
2022-12-15T14:21:52.949Z,1.42
2022-12-15T14:24:39.872Z,1.43
2022-12-15T14:27:07.576Z,1.44
2022-12-15T14:29:34.429Z,1.47
2022-12-15T14:32:01.381Z,1.49
2022-12-15T14:34:33.235Z,1.51
2022-12-15T14:37:03.435Z,1.49
2022-12-15T14:39:39.547Z,1.49
2022-12-15T14:42:07.937Z,1.47
2022-12-15T14:44:41.137Z,1.44
2022-12-15T14:47:33.762Z,1.41
2022-12-15T14:50:02.553Z,1.37
2022-12-15T14:52:39.095Z,1.36
2022-12-15T14:55:20.914Z,1.32
2022-12-15T14:57:48.319Z,1.31
2022-12-15T15:00:28.398Z,1.28
2022-12-15T15:03:12.903Z,1.59
2022-12-15T15:06:01.159Z,1.28
2022-12-15T15:08:32.233Z,1.23
2022-12-15T15:11:03.666Z,1.26
2022-12-15T15:13:40.657Z,1.27
2022-12-15T15:16:15.685Z,1.30
2022-12-15T15:18:43.383Z,1.22
2022-12-15T15:21:23.213Z,1.17
2022-12-15T15:24:09.446Z,1.17
2022-12-15T15:26:36.355Z,1.22
2022-12-15T15:29:03.870Z,1.14
2022-12-15T15:31:41.504Z,1.14
2022-12-15T15:34:08.886Z,1.06
2022-12-15T15:36:38.272Z,1.04
2022-12-15T15:39:15.167Z,0.91
2022-12-15T15:41:42.676Z,0.92
2022-12-15T15:44:14.549Z,0.85
2022-12-15T15:47:00.229Z,0.78
2022-12-15T15:49:27.357Z,0.76
2022-12-15T15:51:56.054Z,0.74
2022-12-15T15:54:27.613Z,0.76
2022-12-15T15:56:54.292Z,0.76
2022-12-15T15:59:22.864Z,0.71
2022-12-15T16:01:59.219Z,0.74
2022-12-15T16:04:27.033Z,0.75
2022-12-15T16:06:54.022Z,0.74
2022-12-15T16:09:21.154Z,0.68
2022-12-15T16:11:47.854Z,0.73
2022-12-15T16:14:17.099Z,0.71
2022-12-15T16:16:44.728Z,0.74
2022-12-15T16:19:14.310Z,0.79
2022-12-15T16:21:42.599Z,0.85
2022-12-15T16:24:13.770Z,0.84
2022-12-15T16:26:47.307Z,0.85
2022-12-15T16:29:16.127Z,0.81
2022-12-15T16:31:45.632Z,0.83
2022-12-15T16:34:13.980Z,0.74
2022-12-15T16:36:41.072Z,0.77
2022-12-15T16:39:30.810Z,0.76
2022-12-15T16:41:58.228Z,0.80
2022-12-15T16:44:26.539Z,0.85
2022-12-15T16:46:53.342Z,0.87
2022-12-15T16:49:20.391Z,0.73
2022-12-15T16:51:50.432Z,0.92
2022-12-15T16:54:20.996Z,0.94
2022-12-15T16:56:48.755Z,0.92
2022-12-15T16:59:38.647Z,0.96
2022-12-15T17:02:28.432Z,1.08
2022-12-15T17:04:55.614Z,1.12
2022-12-15T17:07:24.093Z,1.07
2022-12-15T17:09:51.298Z,1.11
2022-12-15T17:12:18.797Z,1.08
2022-12-15T17:14:46.194Z,1.12
2022-12-15T17:17:18.214Z,1.09
2022-12-15T17:20:11.748Z,1.03
2022-12-15T17:22:33.251Z,1.08
2022-12-15T17:25:00.051Z,1.05
2022-12-15T17:27:29.412Z,1.02
2022-12-15T17:29:59.522Z,0.96
2022-12-15T17:32:26.750Z,0.98
2022-12-15T17:34:53.462Z,0.99
2022-12-15T17:37:20.170Z,1.02
2022-12-15T17:39:51.245Z,0.99
2022-12-15T17:42:20.547Z,1.00
2022-12-15T17:44:48.620Z,0.96
2022-12-15T17:47:16.607Z,0.99
2022-12-15T17:49:43.826Z,1.00
2022-12-15T17:52:26.230Z,1.00
2022-12-15T17:54:53.504Z,0.93
2022-12-15T17:57:20.270Z,0.95
2022-12-15T17:59:47.298Z,0.98
2022-12-15T18:02:14.486Z,0.97
2022-12-15T18:04:42.172Z,0.99
2022-12-15T18:07:21.493Z,0.98
2022-12-15T18:09:50.090Z,0.97
2022-12-15T18:12:26.188Z,1.02
2022-12-15T18:14:54.362Z,1.03
2022-12-15T18:17:21.416Z,0.98
2022-12-15T18:19:48.780Z,1.05
2022-12-15T18:22:23.757Z,1.06
2022-12-15T18:24:52.894Z,1.01
2022-12-15T18:27:28.180Z,1.01
2022-12-15T18:29:56.492Z,0.99
2022-12-15T18:32:25.837Z,0.97
2022-12-15T18:34:53.482Z,1.01
2022-12-15T18:37:23.061Z,1.03
2022-12-15T18:39:50.705Z,1.00
2022-12-15T18:42:20.453Z,0.96
2022-12-15T18:44:50.288Z,0.93
2022-12-15T18:47:18.893Z,0.87
2022-12-15T18:49:45.860Z,0.95
2022-12-15T18:52:23.847Z,0.96
2022-12-15T18:54:53.223Z,0.99
2022-12-15T18:57:28.752Z,0.96
2022-12-15T18:59:59.551Z,0.95
2022-12-15T19:02:26.239Z,0.93
2022-12-15T19:04:53.043Z,0.94
2022-12-15T19:07:19.776Z,0.96
2022-12-15T19:09:46.530Z,0.97
2022-12-15T19:12:18.733Z,0.96
2022-12-15T19:14:47.454Z,1.01
2022-12-15T19:17:37.968Z,0.99
2022-12-15T19:20:30.612Z,1.13
2022-12-15T19:22:57.260Z,1.14
2022-12-15T19:25:30.628Z,1.16
2022-12-15T19:27:59.812Z,1.05
2022-12-15T19:30:36.977Z,0.94
2022-12-15T19:33:09.219Z,0.63
2022-12-15T19:35:36.995Z,0.73
2022-12-15T19:38:04.906Z,0.77
2022-12-15T19:40:34.458Z,0.72
2022-12-15T19:43:04.204Z,0.82
2022-12-15T19:45:32.270Z,0.80
2022-12-15T19:47:59.122Z,0.88
2022-12-15T19:50:30.438Z,0.93
2022-12-15T19:53:00.238Z,0.89
2022-12-15T19:55:30.066Z,0.80
2022-12-15T19:57:56.720Z,0.73
2022-12-15T20:00:24.848Z,0.72
2022-12-15T20:02:54.682Z,0.74
2022-12-15T20:05:24.036Z,0.73
2022-12-15T20:07:53.672Z,0.74
2022-12-15T20:10:31.269Z,0.82
2022-12-15T20:12:59.023Z,0.83
2022-12-15T20:15:26.339Z,0.85
2022-12-15T20:17:59.013Z,0.96
2022-12-15T20:20:27.954Z,0.83
2022-12-15T20:22:58.846Z,0.92
2022-12-15T20:25:28.599Z,0.67
2022-12-15T20:27:56.322Z,0.83
2022-12-15T20:30:26.871Z,0.75
2022-12-15T20:32:53.850Z,0.82
2022-12-15T20:35:22.458Z,0.85
2022-12-15T20:37:50.316Z,0.85
2022-12-15T20:40:20.716Z,0.82
2022-12-15T20:42:48.143Z,0.81
2022-12-15T20:45:16.648Z,0.82
2022-12-15T20:47:46.176Z,0.84
2022-12-15T20:50:31.747Z,0.82
2022-12-15T20:52:58.549Z,0.84
2022-12-15T20:55:25.351Z,0.81
2022-12-15T20:57:52.307Z,0.74
2022-12-15T21:00:19.489Z,0.87
2022-12-15T21:02:46.901Z,0.84
2022-12-15T21:05:19.849Z,0.78
2022-12-15T21:07:47.263Z,0.81
2022-12-15T21:10:16.045Z,0.88
2022-12-15T21:12:45.551Z,0.92
2022-12-15T21:15:15.202Z,0.98
2022-12-15T21:17:42.828Z,1.09
2022-12-15T21:20:11.755Z,1.13
2022-12-15T21:22:38.945Z,1.10
2022-12-15T21:25:16.598Z,1.06
2022-12-15T21:27:43.339Z,1.09
2022-12-15T21:30:20.542Z,1.08
2022-12-15T21:32:48.891Z,0.94
2022-12-15T21:35:17.347Z,0.98
2022-12-15T21:37:47.248Z,1.08
2022-12-15T21:40:22.018Z,1.01
2022-12-15T21:42:50.023Z,0.94
2022-12-15T21:45:22.393Z,1.03
2022-12-15T21:48:09.752Z,0.99
2022-12-15T21:50:37.955Z,1.04
2022-12-15T21:53:06.365Z,1.06
2022-12-15T21:55:33.555Z,0.98
2022-12-15T21:58:00.165Z,1.00
2022-12-15T22:00:26.968Z,0.95
2022-12-15T22:02:54.496Z,0.98
2022-12-15T22:05:30.249Z,1.00
2022-12-15T22:08:15.658Z,1.12
2022-12-15T22:10:42.984Z,1.02
2022-12-15T22:13:14.802Z,1.07
2022-12-15T22:15:41.506Z,1.00
2022-12-15T22:18:12.015Z,1.07
2022-12-15T22:20:39.248Z,1.06
2022-12-15T22:23:06.108Z,1.09
2022-12-15T22:25:32.720Z,1.11
2022-12-15T22:27:59.347Z,1.01
2022-12-15T22:30:27.158Z,1.13
2022-12-15T22:32:54.204Z,1.13
2022-12-15T22:35:25.949Z,1.10
2022-12-15T22:37:53.969Z,1.15
2022-12-15T22:40:22.957Z,1.14
2022-12-15T22:42:53.549Z,1.12
2022-12-15T22:45:24.007Z,1.11
2022-12-15T22:47:52.408Z,1.12
2022-12-15T22:50:23.532Z,1.12
2022-12-15T22:52:50.696Z,1.12
2022-12-15T22:55:20.860Z,1.14
2022-12-15T22:57:56.719Z,1.18
2022-12-15T23:00:23.436Z,1.18
2022-12-15T23:02:51.024Z,1.14
2022-12-15T23:05:20.203Z,1.12
2022-12-15T23:07:47.063Z,1.10
2022-12-15T23:10:39.233Z,1.13
2022-12-15T23:13:06.490Z,1.13
2022-12-15T23:15:52.173Z,1.14
2022-12-15T23:18:19.171Z,1.26
2022-12-15T23:20:45.769Z,1.31
2022-12-15T23:23:12.766Z,1.28
2022-12-15T23:25:39.439Z,1.26
2022-12-15T23:28:06.149Z,1.22
2022-12-15T23:30:32.835Z,1.24
2022-12-15T23:32:59.842Z,1.20
2022-12-15T23:35:26.781Z,1.24
2022-12-15T23:37:53.484Z,1.20
2022-12-15T23:40:22.229Z,1.15
2022-12-15T23:42:50.512Z,1.11
2022-12-15T23:45:18.162Z,1.14
2022-12-15T23:47:45.101Z,1.12
2022-12-15T23:50:11.795Z,1.14
2022-12-15T23:52:38.835Z,1.12
2022-12-15T23:55:09.912Z,1.07
2022-12-15T23:57:38.063Z,1.17
